Time;durP1;ratioP1;P1;durP2;ratioP2;P2;SDS_P1;SDS_P2;PMS_P1;PMS_P2;Temp;Humidity;BMP_temperature;BMP_pressure;BME280_temperature;BME280_humidity;BME280_pressure;Samples;Min_cycle;Max_cycle;Signal;HPM_P1;HPM_P2
2022/02/11 02:25:57;;;;;;;13.40;2.53;;;4.00;99.90;;;;;;5047758;28;20092;-96
2022/02/11 02:36:41;;;;;;;8.45;2.58;;;4.00;99.90;;;;;;4936196;29;20086;-96
2022/02/11 02:39:35;;;;;;;9.23;3.20;;;4.00;99.90;;;;;;4951801;29;20060;-95
2022/02/11 02:50:47;;;;;;;8.98;2.88;;;4.00;99.90;;;;;;4936933;29;20086;-93
2022/02/11 02:58:47;;;;;;;13.45;3.25;;;3.90;99.90;;;;;;4937980;29;20520;-93
2022/02/11 03:01:44;;;;;;;12.13;3.78;;;3.90;99.90;;;;;;4952755;29;20122;-93
2022/02/11 03:31:36;;;;;;;16.02;3.78;;;4.10;99.90;;;;;;4942852;29;20046;-92
2022/02/11 03:34:50;;;;;;;11.05;3.10;;;4.40;99.90;;;;;;4946055;29;20055;-93
2022/02/11 03:57:25;;;;;;;12.68;2.47;;;4.50;99.90;;;;;;4942156;29;20047;-93
2022/02/11 04:22:24;;;;;;;11.13;1.50;;;4.40;99.90;;;;;;4958799;28;20058;-92
2022/02/11 05:00:08;;;;;;;15.43;2.28;;;4.50;99.90;;;;;;4940898;29;20130;-94
2022/02/11 05:02:35;;;;;;;12.90;2.35;;;4.50;99.90;;;;;;4961968;29;20079;-94
2022/02/11 05:05:06;;;;;;;16.85;3.08;;;4.50;99.90;;;;;;4961728;29;20038;-94
2022/02/11 05:07:33;;;;;;;14.60;2.50;;;4.60;99.90;;;;;;4960319;29;20043;-94
2022/02/11 05:09:59;;;;;;;15.32;2.53;;;4.50;99.90;;;;;;4958999;29;20036;-95
2022/02/11 05:12:25;;;;;;;12.15;1.90;;;4.50;99.90;;;;;;4960243;29;20058;-92
2022/02/11 05:14:51;;;;;;;12.38;2.13;;;4.60;99.90;;;;;;4962423;29;20055;-94
2022/02/11 05:17:17;;;;;;;12.65;2.45;;;4.60;99.90;;;;;;4965791;29;20035;-96
2022/02/11 05:19:43;;;;;;;12.25;1.83;;;4.60;99.90;;;;;;4964571;29;20063;-95
2022/02/11 05:22:09;;;;;;;14.52;2.58;;;4.70;99.90;;;;;;4961295;29;20052;-93
2022/02/11 05:24:35;;;;;;;12.45;1.80;;;4.60;99.90;;;;;;4961814;29;20127;-94
2022/02/11 05:27:01;;;;;;;11.05;2.10;;;4.60;99.90;;;;;;4958882;29;20028;-95
2022/02/11 05:29:28;;;;;;;12.07;1.90;;;4.60;99.90;;;;;;4959261;29;20521;-94
2022/02/11 05:31:54;;;;;;;6.88;2.00;;;4.60;99.90;;;;;;4958419;29;20418;-94
2022/02/11 05:34:19;;;;;;;12.55;1.98;;;4.60;99.90;;;;;;4954689;29;20043;-95
2022/02/11 05:36:45;;;;;;;16.23;2.28;;;4.50;99.90;;;;;;4958837;29;20068;-94
2022/02/11 05:39:11;;;;;;;14.23;2.38;;;4.50;99.90;;;;;;4957944;29;20034;-95
2022/02/11 05:41:37;;;;;;;16.33;2.65;;;4.50;99.90;;;;;;4959313;29;20059;-95
2022/02/11 05:44:02;;;;;;;18.02;2.38;;;4.50;99.90;;;;;;4960233;29;20063;-93
2022/02/11 05:46:32;;;;;;;12.60;2.33;;;4.40;99.90;;;;;;4958929;28;20043;-94
2022/02/11 05:48:59;;;;;;;11.82;1.80;;;4.40;99.90;;;;;;4959586;29;20080;-94
2022/02/11 05:51:24;;;;;;;17.35;3.67;;;4.40;99.90;;;;;;4959042;29;20043;-94
2022/02/11 05:53:50;;;;;;;10.30;1.65;;;4.50;99.90;;;;;;4957916;29;20043;-94
2022/02/11 05:56:16;;;;;;;15.27;3.42;;;4.50;99.90;;;;;;4956365;29;20044;-93
2022/02/11 05:58:41;;;;;;;14.98;2.25;;;4.50;99.90;;;;;;4958681;29;20079;-94
2022/02/11 06:01:07;;;;;;;17.20;2.92;;;4.50;99.90;;;;;;4957662;29;20036;-93
2022/02/11 06:03:34;;;;;;;15.73;4.22;;;4.40;99.90;;;;;;4957244;29;20107;-96
2022/02/11 06:06:00;;;;;;;11.40;2.05;;;4.40;99.90;;;;;;4954694;29;20195;-94
2022/02/11 06:08:25;;;;;;;15.00;2.05;;;4.30;99.90;;;;;;4957754;29;20515;-93
2022/02/11 06:10:51;;;;;;;13.02;2.00;;;4.20;99.90;;;;;;4961374;29;20028;-91
2022/02/11 06:13:17;;;;;;;16.60;2.33;;;4.10;99.90;;;;;;4961544;29;20047;-92
2022/02/11 06:15:43;;;;;;;17.17;2.53;;;4.20;99.90;;;;;;4959634;29;20139;-88
2022/02/11 06:18:09;;;;;;;14.88;3.03;;;4.20;99.90;;;;;;4961392;29;20102;-93
2022/02/11 06:20:35;;;;;;;16.02;2.15;;;4.20;99.90;;;;;;4959964;29;20032;-90
2022/02/11 06:23:01;;;;;;;10.73;2.00;;;4.20;99.90;;;;;;4960186;29;20062;-93
2022/02/11 06:25:27;;;;;;;14.18;1.77;;;4.20;99.90;;;;;;4955673;29;20116;-92
2022/02/11 06:27:53;;;;;;;8.93;1.63;;;4.10;99.90;;;;;;4953568;29;20094;-94
2022/02/11 06:30:19;;;;;;;14.10;1.83;;;4.10;99.90;;;;;;4953133;29;20059;-94
2022/02/11 06:32:44;;;;;;;9.10;1.58;;;4.00;99.90;;;;;;4952090;29;20427;-92
2022/02/11 06:35:13;;;;;;;13.20;2.22;;;3.90;99.90;;;;;;4951686;29;20048;-92
2022/02/11 06:37:45;;;;;;;12.32;1.98;;;3.80;99.90;;;;;;4953708;29;20494;-92
2022/02/11 06:40:12;;;;;;;11.48;2.13;;;3.80;99.90;;;;;;4954745;28;20099;-90
2022/02/11 06:42:38;;;;;;;12.50;2.15;;;3.70;99.90;;;;;;4956706;29;20493;-92
2022/02/11 06:45:04;;;;;;;9.07;1.75;;;3.60;99.90;;;;;;4959893;29;20039;-91
2022/02/11 06:47:30;;;;;;;10.90;2.20;;;3.60;99.90;;;;;;4965393;29;20027;-92
2022/02/11 06:49:56;;;;;;;12.43;1.80;;;3.60;99.90;;;;;;4963295;29;20034;-93
2022/02/11 06:52:21;;;;;;;13.32;2.20;;;3.60;99.90;;;;;;4958669;29;20049;-93
2022/02/11 06:54:47;;;;;;;10.50;2.45;;;3.50;99.90;;;;;;4960029;29;20063;-92
2022/02/11 06:57:14;;;;;;;16.17;2.78;;;3.50;99.90;;;;;;4962833;29;20032;-92
2022/02/11 06:59:39;;;;;;;12.85;2.20;;;3.50;99.90;;;;;;4966455;29;20032;-92
2022/02/11 07:02:15;;;;;;;8.40;2.35;;;3.60;99.90;;;;;;4962028;29;20032;-92
2022/02/11 07:04:40;;;;;;;9.77;2.17;;;3.50;99.90;;;;;;4961920;28;20067;-91
2022/02/11 07:07:06;;;;;;;12.40;2.00;;;3.50;99.90;;;;;;4964464;29;20390;-92
2022/02/11 07:09:32;;;;;;;8.15;1.80;;;3.60;99.90;;;;;;4964217;29;20031;-93
2022/02/11 07:11:57;;;;;;;16.52;2.53;;;3.60;99.90;;;;;;4964687;29;20490;-90
2022/02/11 07:14:23;;;;;;;10.73;2.28;;;3.60;99.90;;;;;;4959396;29;20072;-93
2022/02/11 07:16:49;;;;;;;7.82;1.98;;;3.60;99.90;;;;;;4959863;29;20035;-94
2022/02/11 07:19:15;;;;;;;11.63;2.33;;;3.70;99.90;;;;;;4957556;29;20490;-91
2022/02/11 07:21:41;;;;;;;18.13;2.05;;;3.60;99.90;;;;;;4961964;28;20036;-93
2022/02/11 07:24:07;;;;;;;13.27;2.53;;;3.60;99.90;;;;;;4964902;29;20038;-91
2022/02/11 07:26:35;;;;;;;11.88;2.10;;;3.60;99.90;;;;;;4949648;28;20047;-91
2022/02/11 07:29:01;;;;;;;13.48;2.30;;;3.60;99.90;;;;;;4965326;29;20056;-91
2022/02/11 07:31:26;;;;;;;17.85;2.17;;;3.70;99.90;;;;;;4964589;29;20043;-93
2022/02/11 07:33:52;;;;;;;8.73;1.73;;;3.70;99.90;;;;;;4962292;29;20047;-92
2022/02/11 07:36:18;;;;;;;12.25;2.80;;;3.60;99.90;;;;;;4966096;29;20075;-91
2022/02/11 07:38:44;;;;;;;9.93;2.25;;;3.70;99.90;;;;;;4965440;29;20028;-92
2022/02/11 07:41:12;;;;;;;13.32;2.00;;;3.70;99.90;;;;;;4962116;29;20372;-93
2022/02/11 07:43:38;;;;;;;12.18;2.17;;;3.70;99.90;;;;;;4959177;29;20024;-92
2022/02/11 07:46:04;;;;;;;10.35;2.72;;;3.80;99.90;;;;;;4964100;29;20028;-90
2022/02/11 07:48:30;;;;;;;17.52;2.97;;;3.70;99.90;;;;;;4959285;29;20043;-91
2022/02/11 07:51:00;;;;;;;15.40;3.05;;;3.80;99.90;;;;;;4963839;28;20106;-91
2022/02/11 07:53:26;;;;;;;15.18;2.00;;;3.80;99.90;;;;;;4959802;29;20557;-94
2022/02/11 07:55:54;;;;;;;14.15;2.72;;;3.80;99.90;;;;;;4962120;29;20047;-91
2022/02/11 07:58:20;;;;;;;13.38;2.72;;;3.90;99.90;;;;;;4966184;29;20032;-92
2022/02/11 08:00:46;;;;;;;9.63;2.08;;;3.90;99.90;;;;;;4963089;29;20102;-94
2022/02/11 08:03:12;;;;;;;18.50;2.83;;;4.00;99.90;;;;;;4958726;29;20111;-95
2022/02/11 08:05:37;;;;;;;12.35;2.70;;;4.10;99.90;;;;;;4958408;29;20409;-93
2022/02/11 08:08:03;;;;;;;11.38;2.45;;;4.20;99.90;;;;;;4960921;29;20409;-91
2022/02/11 08:10:29;;;;;;;15.77;2.92;;;4.20;99.90;;;;;;4957094;29;20391;-91
2022/02/11 08:12:57;;;;;;;9.50;1.90;;;4.30;99.90;;;;;;4956306;29;20036;-90
2022/02/11 08:15:23;;;;;;;15.38;2.47;;;4.30;99.90;;;;;;4955581;29;20134;-93
2022/02/11 08:17:48;;;;;;;13.02;2.42;;;4.40;99.90;;;;;;4955397;29;20070;-94
2022/02/11 08:20:15;;;;;;;19.13;3.00;;;4.50;99.90;;;;;;4954863;29;20418;-91
2022/02/11 08:22:43;;;;;;;18.80;3.35;;;4.60;99.90;;;;;;4959356;29;20054;-94
2022/02/11 08:25:10;;;;;;;14.82;2.35;;;4.70;99.90;;;;;;4961881;29;20040;-93
2022/02/11 08:27:40;;;;;;;16.00;3.63;;;4.80;99.90;;;;;;4964276;28;20044;-92
2022/02/11 08:30:07;;;;;;;15.40;2.47;;;4.80;99.90;;;;;;4969068;29;20042;-93
2022/02/11 08:32:32;;;;;;;15.27;2.97;;;4.70;99.90;;;;;;4972226;28;20044;-93
2022/02/11 08:34:58;;;;;;;13.65;3.00;;;4.70;99.90;;;;;;4972777;28;20116;-93
2022/02/11 08:37:25;;;;;;;15.63;3.13;;;4.60;99.90;;;;;;4971004;29;20104;-94
2022/02/11 08:39:51;;;;;;;15.60;2.50;;;4.60;99.90;;;;;;4969557;29;20057;-93
2022/02/11 08:42:20;;;;;;;15.25;2.28;;;4.60;99.90;;;;;;4969980;29;20035;-94
2022/02/11 08:44:46;;;;;;;17.73;2.85;;;4.70;99.90;;;;;;4973276;28;20039;-92
2022/02/11 08:47:12;;;;;;;14.75;2.97;;;4.70;99.90;;;;;;4970492;29;20048;-92
2022/02/11 08:49:47;;;;;;;19.25;3.67;;;4.70;99.90;;;;;;4972460;28;20044;-95
2022/02/11 08:52:25;;;;;;;17.73;3.75;;;4.80;99.90;;;;;;4970552;28;20020;-95
2022/02/11 08:54:59;;;;;;;15.38;2.85;;;4.80;99.90;;;;;;4974291;28;20032;-96
2022/02/11 08:57:29;;;;;;;18.60;3.10;;;4.80;99.90;;;;;;4971230;28;20541;-91
2022/02/11 08:59:55;;;;;;;14.70;2.60;;;4.90;99.90;;;;;;4966041;29;20065;-92
2022/02/11 09:02:21;;;;;;;15.05;3.67;;;5.00;99.90;;;;;;4970072;28;20047;-93
2022/02/11 09:04:46;;;;;;;18.65;2.95;;;5.20;99.90;;;;;;4961691;29;20035;-91
2022/02/11 09:07:12;;;;;;;20.92;3.47;;;5.30;99.90;;;;;;4955066;29;20047;-93
2022/02/11 09:09:39;;;;;;;13.45;3.67;;;5.40;99.90;;;;;;4954298;28;20047;-94
2022/02/11 09:12:05;;;;;;;17.67;3.05;;;5.60;99.90;;;;;;4954184;29;20082;-93
2022/02/11 09:14:31;;;;;;;12.10;2.67;;;5.70;99.90;;;;;;4953970;29;20139;-92
2022/02/11 09:16:56;;;;;;;16.08;3.30;;;5.80;99.90;;;;;;4954176;29;20059;-94
2022/02/11 09:19:22;;;;;;;17.55;3.40;;;5.80;99.90;;;;;;4953607;29;20413;-92
2022/02/11 09:21:48;;;;;;;17.38;3.17;;;5.90;99.90;;;;;;4952022;29;20036;-93
2022/02/11 09:24:21;;;;;;;18.15;3.22;;;5.90;99.90;;;;;;4954160;29;20036;-95
2022/02/11 09:27:31;;;;;;;19.90;4.30;;;6.10;99.90;;;;;;4958718;28;20071;-95
2022/02/11 09:29:56;;;;;;;17.20;4.20;;;7.10;99.90;;;;;;4951345;29;20040;-95
2022/02/11 09:43:27;;;;;;;15.15;4.07;;;10.00;99.90;;;;;;5092992;23;20093;-93
2022/02/11 09:46:11;;;;;;;18.90;3.30;;;10.50;99.90;;;;;;5006199;28;20054;-95
2022/02/11 09:48:58;;;;;;;;;;;;;;;;;;;;;
2022/02/11 09:51:26;;;;;;;13.23;2.85;;;11.00;99.90;;;;;;5003548;28;20130;-95
2022/02/11 09:53:52;;;;;;;14.35;3.25;;;10.50;99.90;;;;;;5006518;28;20034;-95
2022/02/11 09:56:44;;;;;;;12.95;2.75;;;10.20;99.90;;;;;;4988864;28;20054;-95
2022/02/11 09:59:11;;;;;;;12.55;2.53;;;10.00;99.90;;;;;;5003674;28;20062;-92
2022/02/11 10:01:54;;;;;;;;;;;;;;;;;;;;;
2022/02/11 10:04:23;;;;;;;14.25;2.25;;;10.20;99.90;;;;;;5005152;28;20121;-92
2022/02/11 10:06:51;;;;;;;8.38;2.28;;;11.00;99.90;;;;;;5000861;28;20065;-93
2022/02/11 10:09:22;;;;;;;9.38;2.33;;;11.60;99.90;;;;;;4999954;28;20045;-93
2022/02/11 10:11:49;;;;;;;11.88;2.50;;;12.10;99.90;;;;;;5000412;28;20054;-92
2022/02/11 10:14:36;;;;;;;10.80;3.08;;;12.50;99.90;;;;;;5004095;28;20026;-93
2022/02/11 10:17:09;;;;;;;10.32;2.83;;;12.90;99.90;;;;;;5007171;28;20181;-93
2022/02/11 10:19:55;;;;;;;9.85;1.88;;;13.00;99.90;;;;;;5006997;28;20043;-93
2022/02/11 10:22:26;;;;;;;10.05;2.25;;;13.30;99.90;;;;;;5007104;28;20065;-92
2022/02/11 10:24:55;;;;;;;9.05;2.38;;;13.30;99.90;;;;;;5006023;28;20031;-92
2022/02/11 10:27:29;;;;;;;13.75;2.60;;;13.60;99.90;;;;;;5006153;28;20096;-93
2022/02/11 10:29:58;;;;;;;14.60;2.35;;;13.50;99.90;;;;;;4996430;28;20395;-92
2022/02/11 10:32:43;;;;;;;13.30;3.00;;;13.40;99.90;;;;;;4996917;28;20034;-90
2022/02/11 10:35:14;;;;;;;10.55;2.05;;;13.60;99.90;;;;;;4997659;28;20050;-93
2022/02/11 10:38:15;;;;;;;8.70;1.85;;;13.20;99.90;;;;;;4998955;28;20036;-91
2022/02/11 10:40:45;;;;;;;9.82;2.30;;;12.80;99.90;;;;;;4998436;28;20038;-96
2022/02/11 10:43:26;;;;;;;11.48;2.00;;;13.20;99.90;;;;;;5001904;28;20038;-93
2022/02/11 10:45:54;;;;;;;9.15;2.13;;;13.80;99.90;;;;;;5013513;28;20042;-93
2022/02/11 10:48:23;;;;;;;10.85;1.85;;;14.30;99.90;;;;;;5021484;28;20026;-93
2022/02/11 10:50:55;;;;;;;9.40;2.05;;;14.50;99.90;;;;;;5019611;28;20565;-94
2022/02/11 10:53:32;;;;;;;7.85;1.77;;;14.70;99.90;;;;;;5019170;28;20080;-92
2022/02/11 10:55:59;;;;;;;8.50;1.90;;;14.80;99.90;;;;;;5019126;28;20065;-93
2022/02/11 10:58:28;;;;;;;5.97;1.92;;;14.90;99.90;;;;;;5017122;28;20036;-93
2022/02/11 11:01:00;;;;;;;8.38;1.98;;;15.10;99.90;;;;;;5016800;28;20095;-92
2022/02/11 11:03:31;;;;;;;10.48;2.33;;;15.30;97.90;;;;;;5016809;28;20164;-93
2022/02/11 11:05:57;;;;;;;14.10;2.72;;;14.90;97.30;;;;;;5020234;28;20109;-93
2022/02/11 11:08:27;;;;;;;9.80;1.90;;;14.80;98.40;;;;;;5018613;28;20037;-91
2022/02/11 11:10:56;;;;;;;9.75;2.03;;;14.90;98.10;;;;;;5017892;28;20034;-91
2022/02/11 11:13:23;;;;;;;8.50;1.95;;;15.10;96.90;;;;;;5018581;28;20120;-93
2022/02/11 11:15:51;;;;;;;8.32;1.58;;;15.00;96.60;;;;;;4987346;28;20069;-92
2022/02/11 11:18:18;;;;;;;7.95;1.75;;;15.30;96.40;;;;;;4998469;28;20440;-93
2022/02/11 11:20:45;;;;;;;9.63;1.90;;;15.00;94.20;;;;;;4998357;28;20035;-94
2022/02/11 11:23:23;;;;;;;8.50;1.63;;;15.00;94.60;;;;;;4996754;28;20022;-93
2022/02/11 11:26:03;;;;;;;8.52;1.73;;;15.20;95.80;;;;;;4997770;28;20046;-92
2022/02/11 11:28:47;;;;;;;6.50;2.20;;;15.30;95.90;;;;;;4997518;28;20034;-90
2022/02/11 11:31:23;;;;;;;11.02;2.20;;;14.10;93.50;;;;;;4996889;28;20506;-92
2022/02/11 11:33:50;;;;;;;8.55;1.80;;;12.70;95.30;;;;;;4998406;28;20716;-94
2022/02/11 11:36:18;;;;;;;7.55;1.73;;;11.90;96.40;;;;;;4976282;28;20734;-91
2022/02/11 11:38:55;;;;;;;7.57;1.40;;;11.30;94.70;;;;;;4975524;28;20034;-92
2022/02/11 11:41:25;;;;;;;7.35;1.40;;;10.60;95.30;;;;;;4978989;28;20563;-92
2022/02/11 11:43:54;;;;;;;10.38;1.70;;;10.20;96.20;;;;;;4984746;28;20102;-95
2022/02/11 18:40:37;;;;;;;7.47;1.70;;;6.60;99.90;;;;;;1038855;23;21593;31
2022/02/11 18:43:46;;;;;;;;;;;;;;;;;;;;;
2022/02/11 18:46:35;;;;;;;6.60;1.48;;;6.50;99.90;;;;;;4958685;29;20545;-96
2022/02/11 18:49:07;;;;;;;6.60;1.75;;;6.50;99.90;;;;;;4947839;28;20089;-94
2022/02/11 18:51:45;;;;;;;4.25;1.58;;;6.50;99.90;;;;;;4977920;28;20041;-94
